This is the latest recevied weather packets stored in our database for station/object IU1OPQ-3. If no packets are shown the sender has not sent any weather packets the latest 10 day(s).
| Time | Temp. | Humidity | Pressure | Rain* | Wind** | Luminosity | Snow |
|---|---|---|---|---|---|---|---|
| 1777305601 | 21.67° C | 46% | 1015.5 hPa | 0 mm | - | - | - |
| 1777304701 | 22.22° C | 49% | 1015.5 hPa | 0 mm | - | - | - |
| 1777303801 | 22.78° C | 46% | 1015.5 hPa | 0 mm | - | - | - |
| 1777302901 | 22.78° C | 45% | 1015.5 hPa | 0 mm | - | - | - |
| 1777302001 | 23.33° C | 45% | 1015.6 hPa | 0 mm | - | - | - |
| 1777301101 | 22.78° C | 46% | 1015.9 hPa | 0 mm | - | - | - |
| 1777300201 | 22.22° C | 50% | 1015.9 hPa | 0 mm | - | - | - |
| 1777299301 | 23.33° C | 46% | 1016 hPa | 0 mm | - | - | - |
| 1777298401 | 24.44° C | 43% | 1016.4 hPa | 0 mm | - | - | - |
| 1777297501 | 23.33° C | 43% | 1016.5 hPa | 0 mm | - | - | - |
| 1777296601 | 23.33° C | 42% | 1016.6 hPa | 0 mm | - | - | - |
| 1777295701 | 23.33° C | 43% | 1016.7 hPa | 0 mm | - | - | - |
| 1777294801 | 23.33° C | 43% | 1017.1 hPa | 0 mm | - | - | - |
| 1777293901 | 22.22° C | 47% | 1017.3 hPa | 0 mm | - | - | - |
| 1777293001 | 23.33° C | 45% | 1017.2 hPa | 0 mm | - | - | - |
| 1777292101 | 23.33° C | 44% | 1017.6 hPa | 0 mm | - | - | - |
| 1777291201 | 21.67° C | 47% | 1017.8 hPa | 0 mm | - | - | - |
| 1777290301 | 22.22° C | 46% | 1017.8 hPa | 0 mm | - | - | - |
| 1777289401 | 22.22° C | 45% | 1018.3 hPa | 0 mm | - | - | - |
| 1777288501 | 22.22° C | 46% | 1018.2 hPa | 0 mm | - | - | - |
| 1777287601 | 21.67° C | 48% | 1018.1 hPa | 0 mm | - | - | - |
| 1777286701 | 21.11° C | 50% | 1018.3 hPa | 0 mm | - | - | - |
| 1777285801 | 21.11° C | 50% | 1018.5 hPa | 0 mm | - | - | - |
| 1777284901 | 20° C | 53% | 1018.3 hPa | 0 mm | - | - | - |
| 1777284001 | 20.56° C | 52% | 1018.5 hPa | 0 mm | - | - | - |
* Rain latest hour (hover to see other rain measurements)
** Current wind speed in m/s (hover to see current wind gust speed)